Terminal Aerodrome Forecast
Issued by NWS

Home | Current Version | Previous Version | Text Only | Print | Product List | Glossary On
Versions: 1 2 3 4 5 6 7 8 9 10 11 12 13 14 15 16
000
FTUS43 KDMX 280539
TAFOTM
TAF
KOTM 280539Z 2806/2906 05008KT P6SM VCSH SKC
     FM281200 07008G15KT P6SM VCSH BKN080
     FM281300 08009G17KT P6SM -RA BKN070
     FM281500 08012G20KT 4SM -RA OVC025
     FM282000 07011G18KT P6SM VCSH OVC007
     FM290000 05009G16KT P6SM OVC006=

USA.gov is the U.S. government's official web portal to all federal, state and local government web resources and services.